createdAt,value
2018-05-12T00:00:04.330Z,93.00
2018-05-12T00:02:32.550Z,93.10
2018-05-12T00:05:00.681Z,92.90
2018-05-12T00:07:28.797Z,92.80
2018-05-12T00:09:56.935Z,92.90
2018-05-12T00:12:25.041Z,92.90
2018-05-12T00:14:54.372Z,92.90
2018-05-12T00:17:23.346Z,92.90
2018-05-12T00:19:52.216Z,92.90
2018-05-12T00:22:20.329Z,92.80
2018-05-12T00:24:49.229Z,92.70
2018-05-12T00:27:18.114Z,92.50
2018-05-12T00:29:47.003Z,92.30
2018-05-12T00:32:15.924Z,92.40
2018-05-12T00:34:44.041Z,92.40
2018-05-12T00:37:12.170Z,91.60
2018-05-12T00:39:40.299Z,91.60
2018-05-12T00:42:08.457Z,91.60
2018-05-12T00:44:36.594Z,92.00
2018-05-12T00:47:04.740Z,92.20
2018-05-12T00:49:33.614Z,92.70
2018-05-12T00:52:01.763Z,92.70
2018-05-12T00:54:32.467Z,92.10
2018-05-12T00:57:00.607Z,91.70
2018-05-12T00:59:29.503Z,91.10
2018-05-12T01:01:58.399Z,91.00
2018-05-12T01:04:27.284Z,91.10
2018-05-12T01:06:56.200Z,91.00
2018-05-12T01:09:24.322Z,91.00
2018-05-12T01:11:54.688Z,90.60
2018-05-12T01:14:22.824Z,90.60
2018-05-12T01:16:50.959Z,90.80
2018-05-12T01:19:19.079Z,91.00
2018-05-12T01:21:47.231Z,91.20
2018-05-12T01:24:16.513Z,91.70
2018-05-12T01:26:44.655Z,91.60
2018-05-12T01:29:14.461Z,91.70
2018-05-12T01:31:43.362Z,91.70
2018-05-12T01:34:11.491Z,91.90
2018-05-12T01:36:39.636Z,91.90
2018-05-12T01:39:07.747Z,91.90
2018-05-12T01:41:35.900Z,91.80
2018-05-12T01:44:04.031Z,91.50
2018-05-12T01:46:32.169Z,91.60
2018-05-12T01:49:00.278Z,91.60
2018-05-12T01:51:28.416Z,91.60
2018-05-12T01:53:56.535Z,91.70
2018-05-12T01:56:24.676Z,92.00
2018-05-12T01:58:53.157Z,92.30
2018-05-12T02:01:21.642Z,92.40
2018-05-12T02:03:50.522Z,92.60
2018-05-12T02:06:18.702Z,92.60
2018-05-12T02:08:46.839Z,92.80
2018-05-12T02:11:15.903Z,92.70
2018-05-12T02:13:44.031Z,92.60
2018-05-12T02:16:15.518Z,92.70
2018-05-12T02:18:43.644Z,92.70
2018-05-12T02:21:11.779Z,92.80
2018-05-12T02:23:39.892Z,92.80
2018-05-12T02:26:08.026Z,92.80
2018-05-12T02:28:37.324Z,92.80
2018-05-12T02:31:05.476Z,92.90
2018-05-12T02:33:33.608Z,93.00
2018-05-12T02:36:01.754Z,93.10
2018-05-12T02:38:29.880Z,93.10
2018-05-12T02:40:58.036Z,93.10
2018-05-12T02:43:26.159Z,93.20
2018-05-12T02:45:54.304Z,93.10
2018-05-12T02:48:23.199Z,93.50
2018-05-12T02:50:52.086Z,93.30
2018-05-12T02:53:20.961Z,93.00
2018-05-12T02:55:49.107Z,93.00
2018-05-12T02:58:17.232Z,92.90
2018-05-12T03:00:46.143Z,92.70
2018-05-12T03:03:14.261Z,92.70
2018-05-12T03:05:42.408Z,92.70
2018-05-12T03:08:10.530Z,92.90
2018-05-12T03:10:38.657Z,93.40
2018-05-12T03:13:06.805Z,92.90
2018-05-12T03:15:35.953Z,93.20
2018-05-12T03:18:09.662Z,93.20
2018-05-12T03:20:37.779Z,93.20
2018-05-12T03:23:06.387Z,93.10
2018-05-12T03:25:35.216Z,93.20
2018-05-12T03:28:04.953Z,93.20
2018-05-12T03:30:33.839Z,93.10
2018-05-12T03:33:02.747Z,93.10
2018-05-12T03:35:30.875Z,93.10
2018-05-12T03:38:00.629Z,92.80
2018-05-12T03:40:28.765Z,92.80
2018-05-12T03:42:57.614Z,92.60
2018-05-12T03:45:26.466Z,92.50
2018-05-12T03:47:54.628Z,92.50
2018-05-12T03:50:22.728Z,92.50
2018-05-12T03:52:51.690Z,92.40
2018-05-12T03:55:19.802Z,93.00
2018-05-12T03:57:47.938Z,93.20
2018-05-12T04:00:16.425Z,93.40
2018-05-12T04:02:48.191Z,93.50
2018-05-12T04:05:29.022Z,93.40
2018-05-12T04:08:09.224Z,93.40
2018-05-12T04:10:43.008Z,94.20
2018-05-12T04:13:11.150Z,93.80
2018-05-12T04:15:39.277Z,93.90
2018-05-12T04:18:07.921Z,93.90
2018-05-12T04:20:36.051Z,94.30
2018-05-12T04:23:05.292Z,94.40
2018-05-12T04:25:33.411Z,94.70
2018-05-12T04:28:06.517Z,94.70
2018-05-12T04:30:34.635Z,94.70
2018-05-12T04:33:02.790Z,94.40
2018-05-12T04:35:30.917Z,94.10
2018-05-12T04:38:00.287Z,94.00
2018-05-12T04:40:28.412Z,93.70
2018-05-12T04:42:57.737Z,93.50
2018-05-12T04:45:25.859Z,93.70
2018-05-12T04:47:56.321Z,93.90
2018-05-12T04:50:24.493Z,93.80
2018-05-12T04:52:52.622Z,93.50
2018-05-12T04:55:20.743Z,93.50
2018-05-12T04:57:48.918Z,93.60
2018-05-12T05:00:17.039Z,93.80
2018-05-12T05:02:45.219Z,93.90
2018-05-12T05:05:13.349Z,94.10
2018-05-12T05:07:42.935Z,94.00
2018-05-12T05:10:11.064Z,94.00
2018-05-12T05:12:39.191Z,93.80
2018-05-12T05:15:08.463Z,93.90
2018-05-12T05:17:37.379Z,94.10
2018-05-12T05:20:05.511Z,94.00
2018-05-12T05:22:33.641Z,94.30
2018-05-12T05:25:01.768Z,94.50
2018-05-12T05:27:31.397Z,94.60
2018-05-12T05:29:59.524Z,94.60
2018-05-12T05:32:28.171Z,94.50
2018-05-12T05:34:56.297Z,94.30
2018-05-12T05:37:24.425Z,94.40
2018-05-12T05:39:52.550Z,94.50
2018-05-12T05:42:20.692Z,94.80
2018-05-12T05:44:48.825Z,94.90
2018-05-12T05:47:17.702Z,94.80
2018-05-12T05:49:45.835Z,94.60
2018-05-12T05:52:14.015Z,94.70
2018-05-12T05:54:42.131Z,94.80
2018-05-12T05:57:10.245Z,95.00
2018-05-12T05:59:38.463Z,95.00
2018-05-12T06:02:06.610Z,95.10
2018-05-12T06:04:34.745Z,95.00
2018-05-12T06:07:07.060Z,95.20
2018-05-12T06:09:36.703Z,95.20
2018-05-12T06:12:04.991Z,95.20
2018-05-12T06:14:33.121Z,95.20
2018-05-12T06:17:02.015Z,94.80
2018-05-12T06:19:30.167Z,94.80
2018-05-12T06:21:58.287Z,94.70
2018-05-12T06:24:26.464Z,94.70
2018-05-12T06:26:54.694Z,95.10
2018-05-12T06:29:24.272Z,95.40
2018-05-12T06:31:52.415Z,95.40
2018-05-12T06:34:20.546Z,95.30
2018-05-12T06:36:49.187Z,95.20
2018-05-12T06:39:18.602Z,94.50
2018-05-12T06:41:46.722Z,94.20
2018-05-12T06:44:15.635Z,95.00
2018-05-12T06:46:43.752Z,95.00
2018-05-12T06:49:11.902Z,95.20
2018-05-12T06:51:41.196Z,95.30
2018-05-12T06:54:09.378Z,95.50
2018-05-12T06:56:37.508Z,95.20
2018-05-12T06:59:05.671Z,94.90
2018-05-12T07:01:33.793Z,95.10
2018-05-12T07:04:03.085Z,94.80
2018-05-12T07:06:31.204Z,94.80
2018-05-12T07:08:59.499Z,94.70
2018-05-12T07:11:27.724Z,94.80
2018-05-12T07:13:55.853Z,95.60
2018-05-12T07:16:24.004Z,95.70
2018-05-12T07:18:52.139Z,95.70
2018-05-12T07:21:20.258Z,95.90
2018-05-12T07:23:48.590Z,96.10
2018-05-12T07:26:18.599Z,95.30
2018-05-12T07:28:46.756Z,95.30
2018-05-12T07:31:15.787Z,94.20
2018-05-12T07:33:43.927Z,94.20
2018-05-12T07:36:12.819Z,93.40
2018-05-12T07:38:42.159Z,93.40
2018-05-12T07:41:10.286Z,93.20
2018-05-12T07:43:38.436Z,93.20
2018-05-12T07:46:06.562Z,92.90
2018-05-12T07:48:35.496Z,92.30
2018-05-12T07:51:04.855Z,92.00
2018-05-12T07:53:33.767Z,92.00
2018-05-12T07:56:01.900Z,92.00
2018-05-12T07:58:30.041Z,92.00
2018-05-12T10:28:06.730Z,66.10
2018-05-12T10:30:34.875Z,66.50
2018-05-12T10:33:03.820Z,67.40
2018-05-12T10:35:32.999Z,67.40
2018-05-12T10:38:01.125Z,68.00
2018-05-12T10:40:29.260Z,68.80
2018-05-12T10:42:57.400Z,69.30
2018-05-12T10:45:26.359Z,68.20
